createdAt,value
2023-02-16T00:01:46.317Z,11.83
2023-02-16T00:04:19.741Z,9.70
2023-02-16T00:06:48.186Z,9.87
2023-02-16T00:09:16.609Z,8.60
2023-02-16T00:12:02.634Z,6.33
2023-02-16T00:14:30.749Z,6.27
2023-02-16T00:17:00.719Z,5.50
2023-02-16T00:19:30.383Z,6.15
2023-02-16T00:21:59.978Z,4.90
2023-02-16T00:24:29.639Z,5.10
2023-02-16T00:26:58.731Z,5.03
2023-02-16T00:29:29.256Z,4.77
2023-02-16T00:31:59.086Z,4.40
2023-02-16T00:34:32.707Z,4.10
2023-02-16T00:37:03.004Z,3.77
2023-02-16T00:39:31.300Z,4.70
2023-02-16T00:42:03.278Z,4.63
2023-02-16T00:44:35.126Z,3.80
2023-02-16T00:47:06.502Z,4.20
2023-02-16T00:49:35.916Z,5.23
2023-02-16T00:52:34.283Z,4.50
2023-02-16T00:55:03.985Z,3.83
2023-02-16T00:57:35.143Z,4.50
2023-02-16T01:00:08.286Z,5.10
2023-02-16T01:02:36.402Z,4.87
2023-02-16T01:05:06.483Z,4.93
2023-02-16T01:07:51.963Z,4.60
2023-02-16T01:10:46.727Z,4.70
2023-02-16T01:13:16.087Z,4.80
2023-02-16T01:15:44.580Z,5.20
2023-02-16T01:18:14.206Z,5.20
2023-02-16T01:20:43.778Z,5.67
2023-02-16T01:23:11.874Z,4.80
2023-02-16T01:30:33.826Z,3.95
2023-02-16T01:33:02.015Z,4.87
2023-02-16T01:35:34.161Z,4.70
2023-02-16T01:38:04.081Z,4.47
2023-02-16T01:40:41.979Z,4.70
2023-02-16T01:43:19.924Z,4.67
2023-02-16T01:45:55.575Z,5.43
2023-02-16T01:48:27.496Z,5.17
2023-02-16T01:51:01.228Z,4.60
2023-02-16T01:53:34.826Z,4.73
2023-02-16T01:56:06.608Z,4.40
2023-02-16T01:58:41.276Z,4.90
2023-02-16T02:01:47.134Z,5.03
2023-02-16T02:04:42.678Z,5.27
2023-02-16T02:07:39.144Z,4.47
2023-02-16T02:10:15.292Z,4.70
2023-02-16T02:12:49.463Z,4.90
2023-02-16T02:15:21.023Z,5.53
2023-02-16T02:17:49.043Z,5.10
2023-02-16T02:20:44.980Z,5.77
2023-02-16T02:23:41.068Z,4.80
2023-02-16T02:26:50.029Z,4.20
2023-02-16T02:29:54.229Z,4.17
2023-02-16T02:32:31.686Z,4.23
2023-02-16T02:35:50.077Z,5.10
2023-02-16T02:38:26.479Z,4.20
2023-02-16T02:41:01.131Z,4.50
2023-02-16T02:43:39.860Z,4.13
2023-02-16T02:46:12.571Z,4.23
2023-02-16T02:48:40.813Z,3.90
2023-02-16T02:51:32.139Z,3.93
2023-02-16T02:54:27.060Z,3.43
2023-02-16T02:57:22.026Z,3.70
2023-02-16T03:00:17.668Z,3.87
2023-02-16T03:02:50.529Z,3.53
2023-02-16T03:05:21.583Z,3.17
2023-02-16T03:10:42.240Z,3.65
2023-02-16T03:13:17.735Z,3.10
2023-02-16T03:15:49.085Z,3.63
2023-02-16T03:18:35.739Z,2.80
2023-02-16T03:21:23.133Z,2.93
2023-02-16T03:24:10.032Z,3.87
2023-02-16T03:26:57.943Z,3.20
2023-02-16T03:29:28.130Z,2.67
2023-02-16T03:31:58.320Z,3.08
2023-02-16T03:34:27.171Z,3.65
2023-02-16T03:36:58.575Z,2.40
2023-02-16T03:39:27.966Z,2.80
2023-02-16T03:41:57.940Z,2.40
2023-02-16T03:44:26.256Z,2.73
2023-02-16T03:46:54.301Z,2.73
2023-02-16T03:49:23.698Z,2.47
2023-02-16T03:51:51.759Z,2.00
2023-02-16T03:54:19.789Z,2.17
2023-02-16T03:56:47.843Z,2.10
2023-02-16T03:59:15.937Z,2.37
2023-02-16T04:01:44.038Z,1.67
2023-02-16T04:04:12.286Z,2.00
2023-02-16T04:07:06.877Z,1.80
2023-02-16T04:09:34.902Z,2.00
2023-02-16T04:12:19.590Z,2.20
2023-02-16T04:14:47.615Z,2.10
2023-02-16T04:17:15.650Z,2.80
2023-02-16T04:19:43.802Z,1.90
2023-02-16T04:22:13.181Z,1.93
2023-02-16T04:24:41.177Z,2.20
2023-02-16T04:27:09.223Z,2.00
2023-02-16T04:29:37.338Z,1.60
2023-02-16T04:32:06.025Z,1.93
2023-02-16T04:34:34.142Z,1.87
2023-02-16T04:37:02.395Z,2.53
2023-02-16T04:39:31.814Z,1.63
2023-02-16T04:41:59.848Z,2.13
2023-02-16T04:44:28.024Z,2.50
2023-02-16T04:46:56.135Z,2.30
2023-02-16T04:49:24.165Z,2.30
2023-02-16T04:51:52.268Z,2.23
2023-02-16T04:54:20.353Z,2.77
2023-02-16T04:56:49.953Z,3.03
2023-02-16T04:59:18.237Z,2.90
2023-02-16T05:01:46.390Z,3.17
2023-02-16T05:04:14.528Z,3.30
2023-02-16T05:06:42.650Z,3.20
2023-02-16T05:09:10.954Z,3.40
2023-02-16T05:11:56.687Z,3.37
2023-02-16T05:14:43.373Z,2.90
2023-02-16T05:17:13.543Z,3.47
2023-02-16T05:19:42.089Z,3.93
2023-02-16T05:22:11.214Z,3.40
2023-02-16T05:24:39.559Z,3.20
2023-02-16T05:27:09.674Z,3.47
2023-02-16T05:29:39.106Z,3.53
2023-02-16T05:32:07.353Z,3.43
2023-02-16T05:34:35.425Z,4.33
2023-02-16T05:37:03.701Z,4.03
2023-02-16T05:39:31.783Z,4.07
2023-02-16T05:42:00.369Z,3.60
2023-02-16T05:44:28.471Z,3.20
2023-02-16T05:46:57.889Z,2.90
2023-02-16T05:49:26.079Z,3.30
2023-02-16T05:51:54.124Z,2.93
2023-02-16T05:54:22.252Z,3.87
2023-02-16T05:56:51.968Z,3.80
2023-02-16T05:59:20.723Z,3.50
2023-02-16T06:01:51.873Z,3.60
2023-02-16T06:04:22.857Z,4.10
2023-02-16T06:06:51.130Z,3.17
2023-02-16T06:09:19.200Z,3.17
2023-02-16T06:11:47.253Z,3.10
2023-02-16T06:14:17.649Z,3.20
2023-02-16T06:16:48.372Z,3.00
2023-02-16T06:19:18.642Z,3.08
2023-02-16T06:21:48.262Z,3.65
2023-02-16T06:24:16.452Z,3.67
2023-02-16T06:26:44.504Z,4.33
2023-02-16T06:29:12.530Z,5.10
2023-02-16T06:31:40.831Z,4.70
2023-02-16T06:34:08.995Z,5.43
2023-02-16T06:36:37.092Z,5.23
2023-02-16T06:39:06.704Z,6.70
2023-02-16T06:41:37.948Z,6.10
2023-02-16T06:44:07.759Z,6.10
2023-02-16T06:46:36.045Z,7.07
2023-02-16T06:49:04.199Z,6.50
2023-02-16T06:51:32.237Z,6.47
2023-02-16T06:54:00.402Z,6.00
2023-02-16T06:56:29.729Z,5.87
2023-02-16T06:58:57.911Z,6.67
2023-02-16T07:01:26.233Z,6.80
2023-02-16T07:03:56.240Z,6.47
2023-02-16T07:06:26.099Z,6.27
2023-02-16T07:08:54.825Z,4.83
2023-02-16T07:11:23.435Z,4.47
2023-02-16T07:13:52.950Z,4.60
2023-02-16T07:16:22.590Z,5.20
2023-02-16T07:18:51.455Z,4.70
2023-02-16T07:21:19.564Z,4.50
2023-02-16T07:23:47.640Z,3.90
2023-02-16T07:26:15.679Z,4.60
2023-02-16T07:28:43.846Z,3.87
2023-02-16T07:31:16.307Z,4.17
2023-02-16T07:33:45.158Z,3.77
2023-02-16T07:36:14.678Z,3.43
2023-02-16T07:38:43.017Z,3.23
2023-02-16T07:41:11.954Z,3.33
2023-02-16T07:43:42.840Z,2.70
2023-02-16T07:46:11.297Z,2.72
2023-02-16T07:48:40.738Z,2.77
2023-02-16T07:51:09.486Z,2.87
2023-02-16T07:53:37.697Z,2.70
2023-02-16T07:56:06.191Z,2.53
2023-02-16T07:58:34.265Z,3.30
2023-02-16T08:01:11.144Z,2.73
2023-02-16T08:03:40.947Z,2.30
2023-02-16T08:06:09.540Z,3.07
2023-02-16T08:08:37.864Z,2.43
2023-02-16T08:11:12.475Z,2.43
2023-02-16T08:13:40.893Z,2.40
2023-02-16T08:16:10.363Z,3.03
2023-02-16T08:18:41.706Z,2.57
2023-02-16T08:21:13.909Z,2.10
2023-02-16T08:23:43.549Z,2.67
2023-02-16T08:26:12.216Z,2.57
2023-02-16T08:28:47.090Z,1.97
2023-02-16T08:31:16.981Z,1.40
2023-02-16T08:33:47.733Z,1.40
2023-02-16T08:36:20.524Z,1.50
2023-02-16T08:38:50.477Z,0.97
2023-02-16T08:41:19.562Z,1.17
2023-02-16T08:43:48.029Z,1.00
2023-02-16T08:46:17.086Z,1.00
2023-02-16T08:48:47.490Z,1.30
2023-02-16T08:51:17.672Z,1.10
2023-02-16T08:53:46.424Z,1.15
2023-02-16T08:56:16.847Z,0.93
2023-02-16T08:58:45.239Z,0.90
2023-02-16T09:01:15.461Z,1.10
2023-02-16T09:03:46.572Z,1.00
2023-02-16T09:06:16.380Z,1.40
2023-02-16T09:08:44.905Z,1.20
2023-02-16T09:11:14.728Z,1.50
2023-02-16T09:13:43.381Z,3.20
2023-02-16T09:16:14.145Z,1.50
2023-02-16T09:18:45.011Z,2.42
2023-02-16T09:21:17.540Z,1.80
2023-02-16T09:23:48.398Z,2.13
2023-02-16T09:26:17.749Z,2.85
2023-02-16T09:28:47.258Z,2.70
2023-02-16T09:31:20.365Z,3.63
2023-02-16T09:33:48.605Z,2.33
2023-02-16T09:36:18.020Z,2.17
2023-02-16T09:38:47.530Z,2.00
2023-02-16T09:41:24.178Z,2.10
2023-02-16T09:43:58.957Z,2.07
2023-02-16T09:46:29.364Z,2.37
2023-02-16T09:49:27.020Z,2.15
2023-02-16T09:52:03.549Z,2.70
2023-02-16T09:54:42.213Z,2.40
2023-02-16T09:57:19.288Z,2.47
2023-02-16T09:59:54.044Z,2.90
2023-02-16T10:02:39.677Z,3.27
2023-02-16T10:05:18.458Z,3.10
2023-02-16T10:07:57.452Z,2.10
2023-02-16T10:10:31.383Z,1.80
2023-02-16T10:13:05.313Z,2.07
2023-02-16T10:15:35.918Z,2.23
2023-02-16T10:18:34.586Z,2.30
2023-02-16T10:21:07.485Z,1.80
2023-02-16T10:23:47.775Z,0.80
2023-02-16T10:26:21.413Z,0.97
2023-02-16T10:28:51.347Z,1.17
2023-02-16T10:31:30.120Z,1.10
2023-02-16T10:34:10.459Z,1.10
2023-02-16T10:36:54.781Z,1.40
2023-02-16T10:43:43.176Z,1.20
2023-02-16T10:46:13.008Z,0.87
2023-02-16T10:48:41.144Z,1.10
2023-02-16T10:51:12.738Z,1.25
2023-02-16T10:58:40.159Z,1.05
2023-02-16T11:01:14.432Z,0.90
2023-02-16T11:03:46.932Z,0.80
2023-02-16T11:06:17.442Z,0.90
2023-02-16T11:08:51.031Z,0.98
2023-02-16T11:11:22.827Z,1.10
2023-02-16T11:14:00.161Z,1.15
2023-02-16T11:16:28.654Z,1.02
2023-02-16T11:18:59.606Z,1.25
2023-02-16T11:24:13.546Z,1.33
2023-02-16T11:26:41.838Z,1.40
2023-02-16T11:29:20.621Z,1.20
2023-02-16T11:31:48.893Z,1.35
2023-02-16T11:34:28.976Z,1.20
2023-02-16T11:37:04.471Z,1.52
2023-02-16T11:39:37.090Z,1.63
2023-02-16T11:42:08.587Z,1.40
2023-02-16T11:44:40.604Z,1.42
2023-02-16T11:47:21.864Z,1.77
2023-02-16T11:49:51.911Z,1.40
2023-02-16T11:52:32.688Z,4.40
2023-02-16T11:55:03.133Z,1.05
2023-02-16T11:57:33.824Z,1.70
2023-02-16T12:00:09.797Z,1.20
2023-02-16T12:03:08.721Z,1.10
2023-02-16T12:05:45.353Z,1.38
2023-02-16T12:08:38.425Z,1.13
2023-02-16T12:11:16.597Z,1.20
2023-02-16T12:13:56.466Z,2.17
2023-02-16T12:16:37.083Z,1.63
2023-02-16T12:19:19.069Z,2.05
2023-02-16T12:21:50.689Z,1.40
2023-02-16T12:24:32.191Z,1.40
2023-02-16T12:27:04.143Z,1.02
2023-02-16T12:29:47.773Z,1.00
2023-02-16T12:32:32.019Z,1.08
2023-02-16T12:35:18.121Z,1.05
2023-02-16T12:37:50.176Z,1.00
2023-02-16T12:40:30.993Z,2.50
2023-02-16T12:43:10.596Z,2.50
2023-02-16T12:45:43.700Z,1.13
2023-02-16T12:48:34.396Z,1.25
2023-02-16T12:51:04.743Z,1.17
2023-02-16T12:54:00.629Z,1.00
2023-02-16T12:56:33.124Z,2.55
2023-02-16T12:59:18.765Z,1.08
2023-02-16T13:01:50.597Z,1.20
2023-02-16T13:04:28.777Z,1.40
2023-02-16T13:07:03.257Z,1.30
2023-02-16T13:09:38.991Z,2.67
2023-02-16T13:12:18.280Z,1.83
2023-02-16T13:14:54.161Z,1.20
2023-02-16T13:17:32.039Z,1.42
2023-02-16T13:20:03.373Z,1.38
2023-02-16T13:23:20.150Z,1.20
2023-02-16T13:26:05.706Z,1.02
2023-02-16T13:28:53.481Z,1.65
2023-02-16T13:31:36.445Z,1.20
2023-02-16T13:34:30.230Z,1.48
2023-02-16T13:37:19.076Z,2.67
2023-02-16T13:40:16.955Z,3.35
2023-02-16T13:43:13.266Z,1.70
2023-02-16T13:45:44.058Z,2.50
2023-02-16T13:48:21.779Z,1.08
2023-02-16T13:50:57.464Z,1.63
2023-02-16T13:53:31.296Z,1.25
2023-02-16T13:56:17.354Z,1.23
2023-02-16T13:58:45.444Z,1.80
2023-02-16T14:01:44.723Z,1.55
2023-02-16T14:04:15.416Z,1.60
2023-02-16T14:06:44.677Z,1.83
2023-02-16T14:09:37.172Z,3.97
2023-02-16T14:12:17.401Z,2.65
2023-02-16T14:14:56.549Z,2.13
2023-02-16T14:17:31.107Z,2.90
2023-02-16T14:20:01.150Z,2.70
2023-02-16T14:22:36.235Z,3.08
2023-02-16T14:25:23.600Z,3.47
2023-02-16T14:27:54.223Z,3.17
2023-02-16T14:30:28.189Z,3.50
2023-02-16T14:33:02.196Z,2.80
2023-02-16T14:35:33.921Z,2.95
2023-02-16T14:38:03.501Z,3.03
2023-02-16T14:40:46.539Z,3.05
2023-02-16T14:43:26.337Z,2.60
2023-02-16T14:46:19.504Z,3.60
2023-02-16T14:49:20.702Z,2.85
2023-02-16T14:52:10.126Z,2.95
2023-02-16T14:55:14.476Z,2.63
2023-02-16T14:57:51.948Z,2.50
2023-02-16T15:00:28.765Z,1.83
2023-02-16T15:02:59.022Z,2.20
2023-02-16T15:05:29.999Z,2.33
2023-02-16T15:10:32.292Z,2.15
2023-02-16T15:13:01.717Z,1.70
2023-02-16T15:15:41.998Z,2.03
2023-02-16T15:18:16.288Z,1.90
2023-02-16T15:20:47.929Z,2.03
2023-02-16T15:23:21.580Z,1.75
2023-02-16T15:26:00.062Z,1.80
2023-02-16T15:28:31.212Z,2.00
2023-02-16T15:31:01.049Z,1.58
2023-02-16T15:33:36.329Z,2.10
2023-02-16T15:36:09.048Z,1.83
2023-02-16T15:38:39.949Z,2.03
2023-02-16T15:41:10.596Z,2.05
2023-02-16T15:43:46.345Z,4.72
2023-02-16T15:46:23.905Z,6.90
2023-02-16T15:48:52.107Z,8.52
2023-02-16T15:51:25.147Z,2.45
2023-02-16T15:53:56.355Z,6.25
2023-02-16T15:56:34.682Z,1.58
2023-02-16T15:59:06.780Z,2.22
2023-02-16T16:01:36.520Z,3.42
2023-02-16T16:04:09.314Z,2.88
2023-02-16T16:06:40.966Z,1.95
2023-02-16T16:09:21.558Z,3.63
2023-02-16T16:11:50.816Z,2.30
2023-02-16T16:14:22.582Z,3.38
2023-02-16T16:16:51.442Z,2.47
2023-02-16T16:19:21.709Z,2.28
2023-02-16T16:21:54.335Z,2.45
2023-02-16T16:24:35.274Z,6.35
2023-02-16T16:27:07.225Z,4.35
2023-02-16T16:29:41.308Z,2.63
2023-02-16T16:32:19.961Z,7.53
2023-02-16T16:34:48.775Z,5.15
2023-02-16T16:37:26.432Z,4.72
2023-02-16T16:40:02.460Z,5.78
2023-02-16T16:42:31.188Z,2.95
2023-02-16T16:45:07.818Z,8.02
2023-02-16T16:47:40.122Z,35.63
2023-02-16T16:50:31.122Z,39.13
2023-02-16T16:52:59.280Z,33.40
2023-02-16T16:55:33.553Z,36.33
2023-02-16T16:58:05.275Z,28.35
2023-02-16T17:00:36.661Z,20.05
2023-02-16T17:03:07.017Z,27.77
2023-02-16T17:05:38.392Z,3.83
2023-02-16T17:08:06.862Z,2.60
2023-02-16T17:10:36.958Z,4.32
2023-02-16T17:13:05.157Z,2.92
2023-02-16T17:15:39.113Z,3.17
2023-02-16T17:18:07.895Z,4.55
2023-02-16T17:20:35.885Z,4.45
2023-02-16T17:23:06.079Z,5.85
2023-02-16T17:25:35.075Z,8.32
2023-02-16T17:28:04.003Z,8.32
2023-02-16T17:30:32.091Z,4.22
2023-02-16T17:33:01.610Z,3.40
2023-02-16T17:35:31.665Z,4.22
2023-02-16T17:37:59.697Z,4.83
2023-02-16T17:40:28.871Z,3.00
2023-02-16T17:42:56.861Z,3.40
2023-02-16T17:45:24.901Z,3.40
2023-02-16T17:47:53.457Z,5.47
2023-02-16T17:50:22.932Z,3.30
2023-02-16T17:52:57.075Z,3.40
2023-02-16T17:55:25.685Z,3.20
2023-02-16T17:57:55.750Z,3.08
2023-02-16T18:00:23.946Z,3.80
2023-02-16T18:02:52.000Z,3.90
2023-02-16T18:05:46.019Z,3.80
2023-02-16T18:08:14.228Z,4.30
2023-02-16T18:10:45.611Z,3.92
2023-02-16T18:13:14.902Z,9.25
2023-02-16T18:15:45.312Z,4.80
2023-02-16T18:18:14.970Z,4.53
2023-02-16T18:20:43.722Z,4.15
2023-02-16T18:23:14.615Z,5.32
2023-02-16T18:25:44.173Z,5.53
2023-02-16T18:28:14.782Z,4.07
2023-02-16T18:30:43.017Z,4.38
2023-02-16T18:33:11.390Z,4.30
2023-02-16T18:35:39.664Z,4.22
2023-02-16T18:38:07.710Z,4.50
2023-02-16T18:40:37.156Z,4.50
2023-02-16T18:43:05.120Z,4.57
2023-02-16T18:45:33.448Z,4.50
2023-02-16T18:48:01.775Z,4.70
2023-02-16T18:50:29.926Z,6.03
2023-02-16T18:52:57.984Z,5.90
2023-02-16T18:55:52.075Z,9.50
2023-02-16T18:58:20.160Z,4.32
2023-02-16T19:00:48.701Z,4.35
2023-02-16T19:03:16.986Z,3.90
2023-02-16T19:05:45.167Z,4.07
2023-02-16T19:08:13.333Z,4.07
2023-02-16T19:10:41.457Z,4.10
2023-02-16T19:13:11.364Z,3.72
2023-02-16T19:15:39.503Z,3.63
2023-02-16T19:18:07.825Z,4.03
2023-02-16T19:20:36.629Z,3.90
2023-02-16T19:23:04.723Z,3.72
2023-02-16T19:25:32.858Z,4.40
2023-02-16T19:28:00.871Z,4.20
2023-02-16T19:30:31.579Z,3.72
2023-02-16T19:32:59.791Z,3.80
2023-02-16T19:35:28.011Z,3.60
2023-02-16T19:37:56.126Z,3.42
2023-02-16T19:40:24.293Z,3.50
2023-02-16T19:42:52.408Z,3.42
2023-02-16T19:45:20.740Z,2.63
2023-02-16T19:47:52.299Z,3.08
2023-02-16T19:50:20.831Z,2.80
2023-02-16T19:52:49.054Z,2.78
2023-02-16T19:55:17.143Z,3.03
2023-02-16T19:57:45.232Z,3.30
2023-02-16T20:00:14.464Z,2.50
2023-02-16T20:02:42.597Z,3.03
2023-02-16T20:05:12.260Z,2.95
2023-02-16T20:07:42.412Z,2.53
2023-02-16T20:10:10.828Z,3.13
2023-02-16T20:12:38.887Z,3.28
2023-02-16T20:15:07.678Z,4.13
2023-02-16T20:17:35.775Z,5.03
2023-02-16T20:20:05.381Z,6.07
2023-02-16T20:22:35.430Z,5.38
2023-02-16T20:25:03.476Z,5.30
2023-02-16T20:27:31.519Z,5.10
2023-02-16T20:30:00.640Z,4.43
2023-02-16T20:32:29.256Z,3.45
2023-02-16T20:34:57.333Z,3.75
2023-02-16T20:37:25.361Z,3.13
2023-02-16T20:39:54.786Z,2.53
2023-02-16T20:42:22.834Z,3.15
2023-02-16T20:44:50.917Z,3.30
2023-02-16T20:47:19.226Z,2.90
2023-02-16T20:49:47.241Z,2.78
2023-02-16T20:52:15.376Z,2.80
2023-02-16T20:54:43.745Z,4.38
2023-02-16T20:57:25.687Z,3.00
2023-02-16T20:59:54.959Z,3.20
2023-02-16T21:02:23.303Z,3.47
2023-02-16T21:04:51.414Z,2.90
2023-02-16T21:07:19.563Z,3.20
2023-02-16T21:09:47.642Z,3.43
2023-02-16T21:12:17.146Z,3.23
2023-02-16T21:14:45.400Z,3.50
2023-02-16T21:17:13.545Z,2.60
2023-02-16T21:19:41.671Z,2.40
2023-02-16T21:22:10.147Z,2.50
2023-02-16T21:24:40.716Z,2.20
2023-02-16T21:27:09.437Z,3.00
2023-02-16T21:29:39.689Z,3.33
2023-02-16T21:32:08.017Z,2.67
2023-02-16T21:34:36.354Z,2.20
2023-02-16T21:37:04.991Z,2.20
2023-02-16T21:39:50.517Z,2.60
2023-02-16T21:42:18.583Z,2.13
2023-02-16T21:44:50.061Z,2.10
2023-02-16T21:47:36.758Z,2.63
2023-02-16T21:50:04.902Z,2.53
2023-02-16T21:52:33.131Z,2.40
2023-02-16T21:55:18.888Z,2.90
2023-02-16T21:57:46.953Z,2.77
2023-02-16T22:00:17.726Z,2.40
2023-02-16T22:02:45.791Z,2.45
2023-02-16T22:05:14.238Z,2.30
2023-02-16T22:07:42.248Z,2.40
2023-02-16T22:10:11.340Z,2.60
2023-02-16T22:12:39.354Z,2.37
2023-02-16T22:15:08.263Z,2.40
2023-02-16T22:17:37.791Z,2.80
2023-02-16T22:20:07.124Z,2.17
2023-02-16T22:22:35.366Z,2.50
2023-02-16T22:25:03.419Z,2.60
2023-02-16T22:27:31.480Z,2.73
2023-02-16T22:29:59.681Z,2.77
2023-02-16T22:32:27.881Z,2.90
2023-02-16T22:34:57.281Z,2.80
2023-02-16T22:37:25.730Z,2.53
2023-02-16T22:39:55.149Z,2.40
2023-02-16T22:42:23.545Z,2.97
2023-02-16T22:44:51.556Z,2.20
2023-02-16T22:47:19.617Z,2.27
2023-02-16T22:49:47.636Z,2.63
2023-02-16T22:52:17.032Z,2.77
2023-02-16T22:54:45.180Z,2.33
2023-02-16T22:57:13.346Z,2.60
2023-02-16T22:59:41.435Z,2.33
2023-02-16T23:02:09.498Z,2.60
2023-02-16T23:04:37.531Z,2.80
2023-02-16T23:07:05.553Z,2.93
2023-02-16T23:09:35.072Z,2.53
2023-02-16T23:12:03.161Z,2.67
2023-02-16T23:14:31.404Z,2.80
2023-02-16T23:16:59.708Z,3.13
2023-02-16T23:19:28.279Z,3.00
2023-02-16T23:21:56.617Z,2.87
2023-02-16T23:24:25.167Z,2.80
2023-02-16T23:26:55.142Z,2.97
2023-02-16T23:29:23.692Z,3.03
2023-02-16T23:31:51.987Z,3.27
2023-02-16T23:34:21.095Z,2.80
2023-02-16T23:36:49.179Z,3.13
2023-02-16T23:39:19.089Z,3.00
2023-02-16T23:41:47.282Z,2.90
2023-02-16T23:44:16.688Z,3.58
2023-02-16T23:46:44.766Z,2.70
2023-02-16T23:49:12.802Z,3.20
2023-02-16T23:51:40.876Z,3.13
2023-02-16T23:54:11.478Z,2.95
2023-02-16T23:56:41.414Z,3.45
2023-02-16T23:59:09.624Z,3.10
